createdAt,value
2023-05-19T00:00:10.787Z,8.05
2023-05-19T00:02:40.795Z,9.00
2023-05-19T00:05:08.108Z,9.40
2023-05-19T00:07:38.701Z,7.95
2023-05-19T00:10:06.709Z,13.45
2023-05-19T00:12:33.641Z,13.20
2023-05-19T00:15:00.545Z,6.95
2023-05-19T00:17:29.612Z,8.80
2023-05-19T00:19:58.679Z,8.52
2023-05-19T00:22:25.888Z,9.52
2023-05-19T00:24:52.582Z,7.45
2023-05-19T00:27:21.520Z,6.95
2023-05-19T00:29:48.242Z,7.20
2023-05-19T00:32:17.146Z,10.68
2023-05-19T00:34:47.782Z,8.25
2023-05-19T00:37:14.623Z,7.82
2023-05-19T00:39:41.396Z,11.70
2023-05-19T00:42:08.468Z,8.40
2023-05-19T00:44:40.017Z,8.68
2023-05-19T00:47:07.366Z,8.43
2023-05-19T00:49:34.778Z,9.60
2023-05-19T00:52:04.258Z,10.13
2023-05-19T00:54:33.792Z,7.68
2023-05-19T00:57:00.911Z,7.78
2023-05-19T00:59:30.172Z,6.10
2023-05-19T01:01:57.445Z,6.72
2023-05-19T01:04:26.563Z,11.48
2023-05-19T01:06:54.977Z,6.75
2023-05-19T01:09:23.081Z,11.60
2023-05-19T01:11:53.350Z,8.77
2023-05-19T01:14:22.915Z,7.60
2023-05-19T01:17:16.698Z,8.02
2023-05-19T01:20:14.653Z,10.77
2023-05-19T01:23:09.085Z,8.93
2023-05-19T01:26:03.252Z,10.00
2023-05-19T01:28:52.016Z,14.95
2023-05-19T01:31:24.781Z,10.52
2023-05-19T01:33:53.865Z,7.40
2023-05-19T01:36:25.920Z,10.27
2023-05-19T01:38:58.583Z,10.13
2023-05-19T01:41:26.310Z,12.27
2023-05-19T01:43:54.221Z,12.32
2023-05-19T01:46:22.105Z,11.05
2023-05-19T01:48:49.106Z,7.00
2023-05-19T01:51:18.311Z,10.35
2023-05-19T01:53:45.008Z,10.10
2023-05-19T01:56:17.208Z,9.20
2023-05-19T01:58:53.070Z,9.57
2023-05-19T02:01:44.803Z,9.85
2023-05-19T02:04:18.486Z,16.27
2023-05-19T02:07:03.274Z,8.63
2023-05-19T02:10:17.487Z,10.45
2023-05-19T02:12:48.105Z,8.02
2023-05-19T02:15:17.363Z,12.48
2023-05-19T02:17:54.363Z,11.00
2023-05-19T02:20:23.885Z,10.32
2023-05-19T02:22:50.572Z,10.20
2023-05-19T02:25:19.687Z,10.45
2023-05-19T02:27:49.086Z,9.50
2023-05-19T02:30:18.161Z,9.13
2023-05-19T02:32:49.689Z,10.35
2023-05-19T02:35:18.742Z,7.75
2023-05-19T02:37:45.985Z,11.95
2023-05-19T02:40:12.702Z,13.70
2023-05-19T02:42:41.583Z,9.63
2023-05-19T02:45:11.090Z,11.88
2023-05-19T02:47:41.472Z,11.45
2023-05-19T02:50:08.967Z,11.57
2023-05-19T02:52:38.047Z,6.85
2023-05-19T02:55:05.095Z,8.45
2023-05-19T02:57:34.582Z,11.18
2023-05-19T03:00:01.633Z,11.70
2023-05-19T03:02:30.715Z,10.88
2023-05-19T03:05:03.839Z,8.98
2023-05-19T03:07:33.685Z,8.20
2023-05-19T03:10:06.570Z,10.65
2023-05-19T03:12:33.803Z,10.00
2023-05-19T03:15:01.011Z,9.38
2023-05-19T03:17:33.617Z,9.93
2023-05-19T03:20:01.466Z,14.05
2023-05-19T03:22:30.914Z,7.60
2023-05-19T03:24:58.411Z,8.20
2023-05-19T03:27:27.408Z,10.90
2023-05-19T03:29:56.326Z,11.98
2023-05-19T03:32:25.605Z,10.15
2023-05-19T03:34:52.357Z,10.43
2023-05-19T03:37:19.064Z,9.90
2023-05-19T03:39:47.964Z,10.77
2023-05-19T03:42:14.764Z,11.55
2023-05-19T03:44:41.508Z,13.13
2023-05-19T03:47:08.283Z,11.77
2023-05-19T03:49:34.977Z,10.68
2023-05-19T03:52:03.262Z,10.43
2023-05-19T03:54:29.979Z,12.50
2023-05-19T03:56:59.129Z,9.95
2023-05-19T03:59:25.828Z,12.77
2023-05-19T04:01:54.858Z,10.52
2023-05-19T04:04:21.981Z,10.35
2023-05-19T04:06:48.808Z,11.60
2023-05-19T04:09:16.498Z,11.43
2023-05-19T04:11:43.343Z,12.82
2023-05-19T04:14:12.387Z,12.75
2023-05-19T04:16:39.072Z,13.10
2023-05-19T04:19:08.050Z,9.35
2023-05-19T04:21:34.949Z,10.57
2023-05-19T04:24:01.690Z,10.27
2023-05-19T04:26:30.891Z,13.88
2023-05-19T04:28:57.665Z,11.68
2023-05-19T04:31:24.549Z,10.68
2023-05-19T04:33:53.398Z,9.75
2023-05-19T04:36:22.633Z,11.25
2023-05-19T04:38:54.742Z,11.60
2023-05-19T04:41:23.832Z,12.30
2023-05-19T04:43:50.501Z,10.43
2023-05-19T04:46:17.263Z,14.93
2023-05-19T04:48:48.581Z,13.77
2023-05-19T04:51:15.266Z,13.70
2023-05-19T04:53:42.674Z,13.43
2023-05-19T04:56:15.058Z,11.27
2023-05-19T04:58:44.566Z,12.90
2023-05-19T05:01:13.797Z,10.07
2023-05-19T05:03:40.793Z,13.93
2023-05-19T05:06:07.651Z,10.07
2023-05-19T05:08:40.007Z,12.00
2023-05-19T05:11:09.732Z,10.98
2023-05-19T05:13:36.668Z,11.18
2023-05-19T05:16:09.003Z,9.15
2023-05-19T05:18:38.592Z,12.43
2023-05-19T05:21:06.796Z,8.95
2023-05-19T05:23:33.770Z,14.93
2023-05-19T05:26:06.483Z,11.05
2023-05-19T05:28:35.640Z,9.73
2023-05-19T05:31:04.724Z,12.20
2023-05-19T05:33:31.974Z,11.52
2023-05-19T05:36:03.731Z,12.82
2023-05-19T05:38:30.903Z,13.05
2023-05-19T05:40:57.616Z,9.45
2023-05-19T05:43:24.362Z,11.10
2023-05-19T05:45:51.077Z,10.30
2023-05-19T05:48:23.856Z,12.65
2023-05-19T05:50:50.911Z,8.82
2023-05-19T05:53:21.829Z,10.68
2023-05-19T05:55:49.158Z,7.10
2023-05-19T05:58:18.066Z,9.77
2023-05-19T06:00:45.235Z,12.82
2023-05-19T06:03:12.197Z,7.75
2023-05-19T06:05:41.534Z,10.57
2023-05-19T06:08:10.436Z,8.52
2023-05-19T06:10:41.660Z,8.45
2023-05-19T06:13:08.389Z,13.00
2023-05-19T06:15:37.721Z,7.40
2023-05-19T06:18:09.072Z,8.68
2023-05-19T06:20:36.190Z,9.02
2023-05-19T06:23:03.158Z,5.63
2023-05-19T06:25:30.509Z,6.20
2023-05-19T06:28:01.922Z,9.32
2023-05-19T06:30:33.737Z,8.15
2023-05-19T06:33:03.704Z,5.68
2023-05-19T06:35:33.227Z,5.10
2023-05-19T06:37:59.928Z,9.40
2023-05-19T06:40:26.694Z,12.98
2023-05-19T06:42:55.579Z,8.93
2023-05-19T06:45:22.533Z,6.50
2023-05-19T06:47:51.910Z,10.60
2023-05-19T06:50:18.785Z,7.53
2023-05-19T06:52:47.699Z,8.65
2023-05-19T06:55:14.465Z,9.75
2023-05-19T06:57:43.723Z,6.40
2023-05-19T07:00:16.763Z,10.25
2023-05-19T07:02:46.959Z,6.90
2023-05-19T07:05:14.135Z,7.65
2023-05-19T07:07:41.727Z,8.40
2023-05-19T07:10:11.540Z,7.68
2023-05-19T07:12:40.498Z,9.23
2023-05-19T07:15:07.563Z,9.90
2023-05-19T07:17:34.317Z,12.18
2023-05-19T07:20:01.669Z,8.95
2023-05-19T07:22:28.432Z,6.90
2023-05-19T07:24:57.555Z,11.13
2023-05-19T07:27:24.234Z,11.40
2023-05-19T07:29:50.961Z,9.75
2023-05-19T07:32:17.757Z,9.00
2023-05-19T07:34:46.812Z,4.68
2023-05-19T07:37:13.584Z,13.25
2023-05-19T07:39:40.378Z,10.45
2023-05-19T07:42:09.282Z,9.65
2023-05-19T07:44:36.168Z,7.70
2023-05-19T07:47:02.912Z,7.20
2023-05-19T07:49:29.679Z,10.00
2023-05-19T07:52:01.156Z,6.65
2023-05-19T07:54:27.827Z,6.40
2023-05-19T07:56:54.621Z,7.82
2023-05-19T07:59:21.387Z,4.55
2023-05-19T08:01:48.146Z,14.25
2023-05-19T08:04:14.908Z,10.60
2023-05-19T08:06:44.597Z,7.55
2023-05-19T08:09:11.955Z,9.27
2023-05-19T08:11:38.946Z,10.45
2023-05-19T08:14:07.953Z,3.47
2023-05-19T08:16:37.036Z,8.40
2023-05-19T08:19:05.484Z,8.68
2023-05-19T08:21:34.623Z,8.30
2023-05-19T08:24:02.413Z,9.70
2023-05-19T08:26:29.353Z,5.78
2023-05-19T08:28:56.224Z,8.77
2023-05-19T08:31:27.712Z,5.03
2023-05-19T08:33:57.023Z,7.50
2023-05-19T08:36:26.268Z,9.43
2023-05-19T08:38:52.971Z,7.65
2023-05-19T08:41:24.445Z,6.68
2023-05-19T08:43:51.206Z,8.43
2023-05-19T08:46:20.535Z,8.27
2023-05-19T08:48:48.513Z,5.45
2023-05-19T08:51:27.544Z,9.30
2023-05-19T08:54:03.417Z,8.38
2023-05-19T08:56:33.577Z,5.15
2023-05-19T08:59:04.087Z,14.57
2023-05-19T09:01:33.524Z,6.22
2023-05-19T09:04:03.239Z,6.78
2023-05-19T09:06:32.417Z,6.45
2023-05-19T09:08:59.140Z,5.30
2023-05-19T09:11:26.073Z,13.20
2023-05-19T09:13:52.926Z,10.30
2023-05-19T09:16:20.011Z,7.20
2023-05-19T09:19:04.344Z,7.55
2023-05-19T09:21:31.981Z,11.55
2023-05-19T09:24:07.885Z,6.90
2023-05-19T09:26:42.392Z,5.45
2023-05-19T09:29:12.973Z,8.63
2023-05-19T09:32:00.996Z,4.20
2023-05-19T09:34:30.161Z,8.95
2023-05-19T09:36:59.749Z,7.38
2023-05-19T09:39:26.735Z,7.25
2023-05-19T09:41:55.088Z,8.93
2023-05-19T09:44:31.214Z,6.47
2023-05-19T09:46:58.665Z,7.03
2023-05-19T09:49:30.164Z,4.78
2023-05-19T09:51:57.890Z,4.15
2023-05-19T09:54:25.742Z,8.77
2023-05-19T09:56:58.719Z,6.22
2023-05-19T09:59:32.964Z,7.93
2023-05-19T10:02:02.505Z,6.05
2023-05-19T10:04:32.474Z,5.65
2023-05-19T10:07:00.095Z,5.25
2023-05-19T10:09:30.920Z,4.25
2023-05-19T10:11:59.059Z,3.58
2023-05-19T10:14:27.956Z,9.07
2023-05-19T10:17:01.429Z,6.10
2023-05-19T10:19:29.112Z,7.80
2023-05-19T10:21:56.480Z,3.90
2023-05-19T10:24:23.218Z,4.00
2023-05-19T10:27:07.510Z,5.85
2023-05-19T10:29:41.678Z,5.20
2023-05-19T10:32:20.309Z,4.88
2023-05-19T10:35:09.274Z,5.82
2023-05-19T10:38:08.517Z,6.80
2023-05-19T10:40:51.716Z,6.68
2023-05-19T10:43:48.704Z,5.70
2023-05-19T10:46:15.790Z,8.55
2023-05-19T10:48:48.558Z,4.93
2023-05-19T10:51:15.770Z,5.30
2023-05-19T10:53:50.154Z,5.43
2023-05-19T10:56:30.071Z,6.77
2023-05-19T10:59:01.671Z,6.28
2023-05-19T11:01:33.746Z,4.68
2023-05-19T11:04:15.941Z,4.80
2023-05-19T11:06:51.620Z,5.60
2023-05-19T11:09:22.559Z,5.47
2023-05-19T11:11:56.650Z,4.20
2023-05-19T11:14:29.068Z,5.00
2023-05-19T11:16:59.904Z,4.20
2023-05-19T11:19:36.972Z,3.10
2023-05-19T11:22:13.302Z,4.05
2023-05-19T11:24:52.163Z,5.10
2023-05-19T11:27:21.859Z,7.50
2023-05-19T11:29:52.161Z,6.43
2023-05-19T11:32:28.022Z,4.35
2023-05-19T11:34:58.262Z,9.13
2023-05-19T11:37:25.529Z,5.85
2023-05-19T11:39:54.891Z,6.15
2023-05-19T11:42:23.760Z,3.35
2023-05-19T11:44:50.768Z,3.30
2023-05-19T11:47:17.526Z,6.18
2023-05-19T11:49:45.951Z,4.25
2023-05-19T11:52:13.155Z,6.22
2023-05-19T11:54:42.436Z,5.25
2023-05-19T11:57:12.128Z,5.30
2023-05-19T11:59:45.543Z,3.67
2023-05-19T12:02:19.629Z,3.53
2023-05-19T12:04:52.586Z,3.60
2023-05-19T12:07:22.917Z,5.75
2023-05-19T12:09:52.854Z,4.28
2023-05-19T12:12:21.946Z,6.03
2023-05-19T12:14:53.062Z,4.43
2023-05-19T12:17:21.154Z,5.00
2023-05-19T12:19:49.701Z,4.75
2023-05-19T12:22:19.866Z,4.15
2023-05-19T12:24:47.293Z,4.35
2023-05-19T12:27:26.263Z,4.85
2023-05-19T12:29:57.236Z,5.25
2023-05-19T12:32:29.039Z,4.22
2023-05-19T12:34:56.565Z,5.15
2023-05-19T12:37:27.578Z,4.03
2023-05-19T12:39:56.157Z,4.30
2023-05-19T12:42:30.855Z,5.30
2023-05-19T12:45:00.902Z,4.30
2023-05-19T12:47:34.739Z,4.85
2023-05-19T12:50:03.844Z,6.95
2023-05-19T12:52:35.469Z,4.85
2023-05-19T12:55:07.761Z,5.22
2023-05-19T12:57:36.055Z,4.18
2023-05-19T13:00:21.611Z,7.03
2023-05-19T13:03:16.004Z,4.95
2023-05-19T13:05:45.617Z,4.00
2023-05-19T13:08:22.016Z,4.30
2023-05-19T13:10:51.499Z,5.40
2023-05-19T13:13:18.596Z,4.70
2023-05-19T13:15:49.392Z,5.15
2023-05-19T13:18:19.080Z,5.22
2023-05-19T13:20:52.968Z,6.65
2023-05-19T13:23:21.807Z,5.45
2023-05-19T13:25:52.740Z,4.15
2023-05-19T13:28:19.467Z,4.10
2023-05-19T13:30:46.231Z,5.15
2023-05-19T13:33:13.007Z,4.80
2023-05-19T13:35:42.507Z,4.03
2023-05-19T13:38:12.141Z,5.22
2023-05-19T13:40:41.475Z,6.82
2023-05-19T13:43:10.436Z,4.25
2023-05-19T13:45:41.182Z,3.50
2023-05-19T13:48:12.583Z,3.22
2023-05-19T13:50:43.702Z,3.72
2023-05-19T13:53:11.558Z,5.35
2023-05-19T13:55:38.311Z,4.93
2023-05-19T13:58:07.710Z,5.18
2023-05-19T14:00:35.788Z,5.13
2023-05-19T14:03:05.831Z,5.22
2023-05-19T14:05:35.533Z,4.85
2023-05-19T14:08:03.630Z,3.78
2023-05-19T14:10:32.730Z,4.13
2023-05-19T14:15:29.673Z,4.88
2023-05-19T14:17:56.589Z,5.65
2023-05-19T14:20:23.343Z,5.93
2023-05-19T14:22:50.112Z,4.15
2023-05-19T14:25:19.256Z,5.13
2023-05-19T14:27:45.953Z,4.07
2023-05-19T14:30:13.032Z,4.38
2023-05-19T14:32:41.978Z,3.55
2023-05-19T14:35:08.949Z,4.38
2023-05-19T14:37:35.738Z,6.13
2023-05-19T14:40:07.791Z,4.63
2023-05-19T14:42:36.716Z,4.97
2023-05-19T14:45:03.677Z,5.25
2023-05-19T14:47:30.524Z,4.82
2023-05-19T14:49:57.295Z,4.00
2023-05-19T14:52:24.293Z,5.97
2023-05-19T14:54:56.054Z,4.45
2023-05-19T14:57:27.451Z,4.30
2023-05-19T14:59:58.780Z,2.67
2023-05-19T15:02:27.426Z,5.32
2023-05-19T15:04:55.310Z,3.83
2023-05-19T15:07:22.278Z,3.42
2023-05-19T15:09:51.428Z,3.92
2023-05-19T15:12:20.495Z,4.05
2023-05-19T15:14:49.326Z,3.33
2023-05-19T15:17:18.329Z,4.20
2023-05-19T15:19:45.229Z,3.95
2023-05-19T15:22:14.085Z,7.03
2023-05-19T15:24:41.210Z,4.18
2023-05-19T15:27:13.177Z,2.80
2023-05-19T15:29:42.200Z,4.57
2023-05-19T15:32:09.082Z,3.92
2023-05-19T15:34:36.064Z,5.38
2023-05-19T15:37:02.766Z,3.05
2023-05-19T15:39:35.973Z,4.65
2023-05-19T15:42:05.401Z,4.53
2023-05-19T15:44:36.336Z,3.50
2023-05-19T15:47:05.387Z,3.95
2023-05-19T15:49:36.857Z,4.72
2023-05-19T15:52:04.041Z,3.95
2023-05-19T15:54:31.810Z,4.05
2023-05-19T15:56:58.496Z,4.05
2023-05-19T15:59:25.219Z,5.03
2023-05-19T16:01:54.429Z,4.68
2023-05-19T16:04:23.417Z,2.38
2023-05-19T16:06:55.133Z,4.88
2023-05-19T16:09:24.107Z,4.00
2023-05-19T16:11:53.255Z,3.55
2023-05-19T16:14:19.915Z,6.30
2023-05-19T16:16:48.905Z,4.95
2023-05-19T16:19:15.766Z,2.70
2023-05-19T16:21:42.506Z,3.92
2023-05-19T16:24:09.210Z,5.35
2023-05-19T16:26:36.000Z,3.78
2023-05-19T16:29:02.712Z,3.17
2023-05-19T16:31:29.458Z,3.60
2023-05-19T16:33:56.257Z,3.38
2023-05-19T16:36:23.039Z,3.97
2023-05-19T16:38:53.338Z,6.90
2023-05-19T16:41:24.409Z,4.32
2023-05-19T16:43:53.379Z,3.38
2023-05-19T16:46:22.541Z,3.88
2023-05-19T16:48:51.707Z,4.38
2023-05-19T16:51:18.403Z,4.07
2023-05-19T16:53:47.524Z,3.53
2023-05-19T16:56:16.411Z,3.25
2023-05-19T16:58:43.077Z,3.38
2023-05-19T17:01:12.350Z,3.78
2023-05-19T17:03:39.122Z,5.20
2023-05-19T17:06:06.210Z,3.17
2023-05-19T17:08:32.994Z,6.50
2023-05-19T17:10:59.652Z,3.50
2023-05-19T17:13:28.236Z,3.00
2023-05-19T17:15:55.023Z,5.00
2023-05-19T17:18:21.726Z,4.00
2023-05-19T17:20:48.414Z,3.83
2023-05-19T17:23:17.926Z,4.25
2023-05-19T17:25:44.745Z,3.08
2023-05-19T17:28:13.912Z,3.92
2023-05-19T17:30:45.358Z,3.42
2023-05-19T17:33:14.651Z,4.53
2023-05-19T17:35:43.481Z,3.15
2023-05-19T17:38:10.188Z,3.75
2023-05-19T17:40:37.045Z,3.95
2023-05-19T17:43:08.104Z,4.18
2023-05-19T17:45:34.955Z,4.07
2023-05-19T17:48:01.838Z,5.07
2023-05-19T17:50:31.145Z,3.55
2023-05-19T17:53:00.511Z,5.75
2023-05-19T17:55:29.974Z,3.20
2023-05-19T17:57:57.518Z,2.63
2023-05-19T18:00:25.226Z,2.40
2023-05-19T18:02:52.596Z,4.82
2023-05-19T18:05:22.712Z,2.20
2023-05-19T18:07:53.584Z,2.85
2023-05-19T18:10:21.060Z,3.35
2023-05-19T18:12:50.195Z,4.68
2023-05-19T18:15:21.597Z,5.00
2023-05-19T18:17:48.466Z,4.45
2023-05-19T18:20:15.240Z,3.97
2023-05-19T18:22:41.927Z,6.03
2023-05-19T18:25:09.204Z,4.90
2023-05-19T18:27:35.959Z,5.57
2023-05-19T18:30:05.046Z,6.57
2023-05-19T18:32:33.664Z,6.13
2023-05-19T18:35:00.432Z,3.42
2023-05-19T18:37:29.702Z,5.72
2023-05-19T18:39:59.998Z,5.95
2023-05-19T18:42:28.994Z,3.97
2023-05-19T18:44:55.758Z,4.13
2023-05-19T18:47:24.819Z,4.53
2023-05-19T18:49:51.511Z,3.83
2023-05-19T18:52:21.677Z,4.63
2023-05-19T18:54:48.736Z,3.35
2023-05-19T18:57:15.577Z,3.38
2023-05-19T18:59:44.412Z,5.32
2023-05-19T19:02:11.305Z,2.90
2023-05-19T19:04:38.053Z,4.15
2023-05-19T19:07:05.726Z,4.22
2023-05-19T19:09:32.403Z,4.10
2023-05-19T19:11:59.182Z,4.72
2023-05-19T19:14:25.975Z,5.38
2023-05-19T19:16:57.737Z,3.47
2023-05-19T19:19:24.676Z,5.30
2023-05-19T19:21:51.398Z,3.83
2023-05-19T19:24:18.134Z,4.05
2023-05-19T19:26:44.832Z,3.88
2023-05-19T19:29:11.950Z,4.40
2023-05-19T19:31:40.953Z,3.38
2023-05-19T19:34:09.368Z,4.18
2023-05-19T19:36:38.780Z,3.10
2023-05-19T19:39:05.493Z,4.63
2023-05-19T19:41:34.644Z,4.55
2023-05-19T19:44:01.388Z,8.27
2023-05-19T19:46:28.283Z,6.38
2023-05-19T19:48:58.073Z,3.75
2023-05-19T19:51:24.806Z,4.00
2023-05-19T19:53:54.021Z,6.50
2023-05-19T19:56:24.696Z,3.60
2023-05-19T19:58:51.532Z,4.65
2023-05-19T20:01:20.472Z,3.83
2023-05-19T20:03:48.012Z,3.15
2023-05-19T20:06:15.251Z,3.25
2023-05-19T20:08:44.351Z,3.33
2023-05-19T20:11:11.056Z,3.45
2023-05-19T20:13:37.812Z,3.42
2023-05-19T20:16:05.019Z,3.42
2023-05-19T20:18:36.642Z,3.33
2023-05-19T20:21:03.462Z,3.53
2023-05-19T20:23:30.226Z,4.97
2023-05-19T20:26:12.042Z,4.13
2023-05-19T20:28:40.409Z,2.88
2023-05-19T20:31:09.634Z,3.85
2023-05-19T20:33:36.312Z,4.32
2023-05-19T20:36:06.793Z,7.03
2023-05-19T20:38:33.540Z,3.85
2023-05-19T20:41:00.300Z,4.45
2023-05-19T20:43:29.482Z,6.10
2023-05-19T20:46:03.623Z,3.42
2023-05-19T20:48:30.533Z,3.53
2023-05-19T20:50:57.272Z,3.80
2023-05-19T20:53:24.363Z,4.30
2023-05-19T20:55:53.606Z,3.05
2023-05-19T20:58:26.427Z,3.25
2023-05-19T21:00:57.420Z,3.97
2023-05-19T21:03:26.742Z,3.78
2023-05-19T21:05:55.888Z,9.82
2023-05-19T21:08:25.424Z,4.40
2023-05-19T21:10:52.625Z,3.78
2023-05-19T21:13:19.312Z,4.78
2023-05-19T21:15:46.006Z,3.75
2023-05-19T21:18:15.076Z,6.25
2023-05-19T21:20:44.001Z,3.80
2023-05-19T21:23:10.850Z,3.60
2023-05-19T21:25:37.740Z,4.05
2023-05-19T21:28:04.566Z,4.38
2023-05-19T21:30:31.381Z,3.90
2023-05-19T21:32:58.566Z,7.10
2023-05-19T21:35:27.915Z,4.93
2023-05-19T21:37:57.320Z,4.03
2023-05-19T21:40:26.203Z,3.75
2023-05-19T21:42:55.176Z,3.20
2023-05-19T21:45:24.255Z,5.15
2023-05-19T21:47:53.120Z,3.10
2023-05-19T21:50:19.992Z,4.30
2023-05-19T21:52:49.032Z,4.70
2023-05-19T21:55:16.027Z,4.45
2023-05-19T21:57:42.780Z,2.67
2023-05-19T22:00:13.180Z,4.57
2023-05-19T22:02:40.656Z,5.53
2023-05-19T22:05:07.822Z,7.03
2023-05-19T22:07:37.036Z,7.03
2023-05-19T22:10:04.316Z,9.13
2023-05-19T22:12:32.469Z,11.88
2023-05-19T22:15:00.480Z,9.52
2023-05-19T22:17:27.460Z,12.27
2023-05-19T22:19:54.222Z,7.85
2023-05-19T22:22:21.201Z,7.05
2023-05-19T22:24:50.452Z,7.18
2023-05-19T22:27:17.108Z,5.70
2023-05-19T22:29:43.944Z,4.78
2023-05-19T22:32:12.084Z,5.38
2023-05-19T22:34:41.588Z,4.35
2023-05-19T22:37:08.338Z,4.63
2023-05-19T22:39:35.519Z,4.65
2023-05-19T22:42:02.649Z,4.10
2023-05-19T22:44:29.353Z,4.40
2023-05-19T22:46:56.197Z,4.50
2023-05-19T22:49:22.931Z,5.18
2023-05-19T22:51:50.459Z,3.28
2023-05-19T22:54:21.861Z,3.58
2023-05-19T22:56:51.047Z,3.42
2023-05-19T22:59:21.492Z,3.38
2023-05-19T23:01:48.376Z,4.78
2023-05-19T23:04:17.648Z,3.30
2023-05-19T23:06:47.185Z,4.63
2023-05-19T23:09:15.231Z,5.25
2023-05-19T23:11:44.433Z,3.85
2023-05-19T23:14:11.254Z,4.20
2023-05-19T23:16:40.259Z,5.22
2023-05-19T23:19:09.910Z,5.15
2023-05-19T23:21:38.818Z,4.65
2023-05-19T23:24:06.410Z,3.22
2023-05-19T23:26:33.282Z,5.18
2023-05-19T23:29:02.123Z,3.72
2023-05-19T23:31:28.912Z,3.75
2023-05-19T23:33:55.824Z,5.00
2023-05-19T23:36:25.045Z,3.45
2023-05-19T23:38:54.077Z,5.30
2023-05-19T23:41:21.352Z,5.07
2023-05-19T23:43:53.099Z,3.92
2023-05-19T23:46:20.019Z,3.72
2023-05-19T23:48:47.441Z,6.82
2023-05-19T23:51:14.240Z,3.50
2023-05-19T23:53:41.062Z,4.97
2023-05-19T23:56:08.050Z,2.88
2023-05-19T23:58:37.091Z,4.15
